sensor_id;sensor_type;location;lat;lon;timestamp;temperature;humidity
7016;DHT22;3548;48.402;9.990;2022-09-20T00:01:14;8.00;99.90
7016;DHT22;3548;48.402;9.990;2022-09-20T00:03:43;7.90;99.90
7016;DHT22;3548;48.402;9.990;2022-09-20T00:06:11;7.90;99.90
7016;DHT22;3548;48.402;9.990;2022-09-20T00:08:37;7.80;99.90
7016;DHT22;3548;48.402;9.990;2022-09-20T00:11:06;7.80;99.90
7016;DHT22;3548;48.402;9.990;2022-09-20T00:13:32;7.70;99.90
7016;DHT22;3548;48.402;9.990;2022-09-20T00:15:59;7.70;99.90
7016;DHT22;3548;48.402;9.990;2022-09-20T00:18:25;7.70;99.90
7016;DHT22;3548;48.402;9.990;2022-09-20T00:20:51;7.60;99.90
7016;DHT22;3548;48.402;9.990;2022-09-20T00:23:18;7.60;99.90
7016;DHT22;3548;48.402;9.990;2022-09-20T00:25:44;7.60;99.90
7016;DHT22;3548;48.402;9.990;2022-09-20T00:28:10;7.70;99.90
7016;DHT22;3548;48.402;9.990;2022-09-20T00:30:37;7.70;99.90
7016;DHT22;3548;48.402;9.990;2022-09-20T00:33:02;7.60;99.90
7016;DHT22;3548;48.402;9.990;2022-09-20T00:35:29;7.60;99.90
7016;DHT22;3548;48.402;9.990;2022-09-20T00:37:56;7.60;99.90
7016;DHT22;3548;48.402;9.990;2022-09-20T00:40:23;7.50;99.90
7016;DHT22;3548;48.402;9.990;2022-09-20T00:42:51;7.50;99.90
7016;DHT22;3548;48.402;9.990;2022-09-20T00:45:27;7.40;99.90
7016;DHT22;3548;48.402;9.990;2022-09-20T00:48:12;7.40;99.90
7016;DHT22;3548;48.402;9.990;2022-09-20T00:50:43;7.30;99.90
7016;DHT22;3548;48.402;9.990;2022-09-20T00:56:08;7.30;99.90
7016;DHT22;3548;48.402;9.990;2022-09-20T00:58:38;7.20;99.90
7016;DHT22;3548;48.402;9.990;2022-09-20T01:01:06;7.20;99.90
7016;DHT22;3548;48.402;9.990;2022-09-20T01:03:33;7.20;99.90
7016;DHT22;3548;48.402;9.990;2022-09-20T01:06:03;7.20;99.90
7016;DHT22;3548;48.402;9.990;2022-09-20T01:08:33;7.20;99.90
7016;DHT22;3548;48.402;9.990;2022-09-20T01:10:59;7.10;99.90
7016;DHT22;3548;48.402;9.990;2022-09-20T01:13:25;7.00;99.90
7016;DHT22;3548;48.402;9.990;2022-09-20T01:15:51;7.10;99.90
7016;DHT22;3548;48.402;9.990;2022-09-20T01:18:18;7.10;99.90
7016;DHT22;3548;48.402;9.990;2022-09-20T01:20:46;7.00;99.90
7016;DHT22;3548;48.402;9.990;2022-09-20T01:23:30;7.00;99.90
7016;DHT22;3548;48.402;9.990;2022-09-20T01:31:45;6.90;99.90
7016;DHT22;3548;48.402;9.990;2022-09-20T01:34:20;6.90;99.90
7016;DHT22;3548;48.402;9.990;2022-09-20T01:42:08;6.80;99.90
7016;DHT22;3548;48.402;9.990;2022-09-20T01:44:58;6.80;99.90
7016;DHT22;3548;48.402;9.990;2022-09-20T01:47:50;6.80;99.90
7016;DHT22;3548;48.402;9.990;2022-09-20T01:59:37;6.90;99.90
7016;DHT22;3548;48.402;9.990;2022-09-20T02:02:35;6.90;99.90
7016;DHT22;3548;48.402;9.990;2022-09-20T02:08:14;6.90;99.90
7016;DHT22;3548;48.402;9.990;2022-09-20T02:13:30;6.80;99.90
7016;DHT22;3548;48.402;9.990;2022-09-20T02:26:47;6.80;99.90
7016;DHT22;3548;48.402;9.990;2022-09-20T02:29:32;6.90;99.90
7016;DHT22;3548;48.402;9.990;2022-09-20T02:32:34;6.90;99.90
7016;DHT22;3548;48.402;9.990;2022-09-20T02:35:27;6.90;99.90
7016;DHT22;3548;48.402;9.990;2022-09-20T02:40:49;7.00;99.90
7016;DHT22;3548;48.402;9.990;2022-09-20T02:46:46;7.10;99.90
7016;DHT22;3548;48.402;9.990;2022-09-20T02:51:52;7.20;99.90
7016;DHT22;3548;48.402;9.990;2022-09-20T02:54:45;7.20;99.90
7016;DHT22;3548;48.402;9.990;2022-09-20T03:05:20;7.20;99.90
7016;DHT22;3548;48.402;9.990;2022-09-20T03:11:02;7.20;99.90
7016;DHT22;3548;48.402;9.990;2022-09-20T03:13:52;7.20;99.90
7016;DHT22;3548;48.402;9.990;2022-09-20T03:30:57;7.30;99.90
7016;DHT22;3548;48.402;9.990;2022-09-20T03:36:28;7.30;99.90
7016;DHT22;3548;48.402;9.990;2022-09-20T03:47:16;7.40;99.90
7016;DHT22;3548;48.402;9.990;2022-09-20T03:49:56;7.30;99.90
7016;DHT22;3548;48.402;9.990;2022-09-20T03:52:50;7.30;99.90
7016;DHT22;3548;48.402;9.990;2022-09-20T03:55:49;7.40;99.90
7016;DHT22;3548;48.402;9.990;2022-09-20T04:01:15;7.40;99.90
7016;DHT22;3548;48.402;9.990;2022-09-20T04:04:28;7.40;99.90
7016;DHT22;3548;48.402;9.990;2022-09-20T04:21:18;7.60;99.90
7016;DHT22;3548;48.402;9.990;2022-09-20T04:26:52;7.60;99.90
7016;DHT22;3548;48.402;9.990;2022-09-20T04:32:34;7.60;99.90
7016;DHT22;3548;48.402;9.990;2022-09-20T04:38:11;7.60;99.90
7016;DHT22;3548;48.402;9.990;2022-09-20T04:41:09;7.60;99.90
7016;DHT22;3548;48.402;9.990;2022-09-20T04:58:01;7.60;99.90
7016;DHT22;3548;48.402;9.990;2022-09-20T05:06:29;7.70;99.90
7016;DHT22;3548;48.402;9.990;2022-09-20T05:09:31;7.70;99.90
7016;DHT22;3548;48.402;9.990;2022-09-20T05:12:18;7.80;99.90
7016;DHT22;3548;48.402;9.990;2022-09-20T05:20:48;7.90;99.90
7016;DHT22;3548;48.402;9.990;2022-09-20T05:26:11;8.00;99.90
7016;DHT22;3548;48.402;9.990;2022-09-20T05:34:33;8.00;99.90
7016;DHT22;3548;48.402;9.990;2022-09-20T05:42:46;8.10;99.90
7016;DHT22;3548;48.402;9.990;2022-09-20T05:48:16;8.10;99.90
7016;DHT22;3548;48.402;9.990;2022-09-20T05:53:43;8.10;99.90
7016;DHT22;3548;48.402;9.990;2022-09-20T05:58:52;8.20;99.90
7016;DHT22;3548;48.402;9.990;2022-09-20T06:01:29;8.20;99.90
7016;DHT22;3548;48.402;9.990;2022-09-20T06:04:28;8.30;99.90
7016;DHT22;3548;48.402;9.990;2022-09-20T06:07:30;8.30;99.90
7016;DHT22;3548;48.402;9.990;2022-09-20T06:10:17;8.40;99.90
7016;DHT22;3548;48.402;9.990;2022-09-20T06:13:06;8.40;99.90
7016;DHT22;3548;48.402;9.990;2022-09-20T06:15:47;8.50;99.90
7016;DHT22;3548;48.402;9.990;2022-09-20T06:23:18;8.60;99.90
7016;DHT22;3548;48.402;9.990;2022-09-20T06:25:44;8.60;99.90
7016;DHT22;3548;48.402;9.990;2022-09-20T06:28:17;8.70;99.90
7016;DHT22;3548;48.402;9.990;2022-09-20T06:30:54;8.70;99.90
7016;DHT22;3548;48.402;9.990;2022-09-20T06:33:24;8.80;99.90
7016;DHT22;3548;48.402;9.990;2022-09-20T06:41:24;9.00;99.90
7016;DHT22;3548;48.402;9.990;2022-09-20T06:43:58;9.00;99.90
7016;DHT22;3548;48.402;9.990;2022-09-20T06:46:28;9.10;99.90
7016;DHT22;3548;48.402;9.990;2022-09-20T06:48:55;9.10;99.90
7016;DHT22;3548;48.402;9.990;2022-09-20T06:51:22;9.20;99.90
7016;DHT22;3548;48.402;9.990;2022-09-20T06:53:48;9.20;99.90
7016;DHT22;3548;48.402;9.990;2022-09-20T06:56:17;9.30;99.90
7016;DHT22;3548;48.402;9.990;2022-09-20T06:58:44;9.30;99.90
7016;DHT22;3548;48.402;9.990;2022-09-20T07:01:09;9.40;99.90
7016;DHT22;3548;48.402;9.990;2022-09-20T07:03:35;9.50;99.90
7016;DHT22;3548;48.402;9.990;2022-09-20T07:06:01;9.60;99.90
7016;DHT22;3548;48.402;9.990;2022-09-20T07:08:28;9.60;99.90
7016;DHT22;3548;48.402;9.990;2022-09-20T07:10:54;9.70;99.90
7016;DHT22;3548;48.402;9.990;2022-09-20T07:13:19;9.80;99.90
7016;DHT22;3548;48.402;9.990;2022-09-20T07:15:45;9.90;99.90
7016;DHT22;3548;48.402;9.990;2022-09-20T07:18:11;10.00;99.90
7016;DHT22;3548;48.402;9.990;2022-09-20T07:20:37;10.10;99.90
7016;DHT22;3548;48.402;9.990;2022-09-20T07:23:02;10.20;99.90
7016;DHT22;3548;48.402;9.990;2022-09-20T07:25:29;10.30;99.90
7016;DHT22;3548;48.402;9.990;2022-09-20T07:27:56;10.30;99.90
7016;DHT22;3548;48.402;9.990;2022-09-20T07:30:22;10.30;99.90
7016;DHT22;3548;48.402;9.990;2022-09-20T07:32:48;10.40;99.90
7016;DHT22;3548;48.402;9.990;2022-09-20T07:35:14;10.40;99.90
7016;DHT22;3548;48.402;9.990;2022-09-20T07:37:40;10.40;99.90
7016;DHT22;3548;48.402;9.990;2022-09-20T07:40:07;10.40;99.90
7016;DHT22;3548;48.402;9.990;2022-09-20T07:42:33;10.50;99.90
7016;DHT22;3548;48.402;9.990;2022-09-20T07:44:59;10.70;99.90
7016;DHT22;3548;48.402;9.990;2022-09-20T07:47:26;10.70;99.90
7016;DHT22;3548;48.402;9.990;2022-09-20T07:49:52;10.80;99.90
7016;DHT22;3548;48.402;9.990;2022-09-20T07:52:17;11.00;99.90
7016;DHT22;3548;48.402;9.990;2022-09-20T07:54:43;11.00;99.90
7016;DHT22;3548;48.402;9.990;2022-09-20T07:57:10;11.10;99.90
7016;DHT22;3548;48.402;9.990;2022-09-20T07:59:36;11.10;99.90
7016;DHT22;3548;48.402;9.990;2022-09-20T08:02:01;11.20;99.90
7016;DHT22;3548;48.402;9.990;2022-09-20T08:04:27;11.30;99.90
7016;DHT22;3548;48.402;9.990;2022-09-20T08:06:52;11.30;99.90
7016;DHT22;3548;48.402;9.990;2022-09-20T08:09:18;11.30;99.90
7016;DHT22;3548;48.402;9.990;2022-09-20T08:11:44;11.30;99.90
7016;DHT22;3548;48.402;9.990;2022-09-20T08:14:14;11.40;99.90
7016;DHT22;3548;48.402;9.990;2022-09-20T08:16:45;11.50;99.90
7016;DHT22;3548;48.402;9.990;2022-09-20T08:19:20;11.60;99.90
7016;DHT22;3548;48.402;9.990;2022-09-20T08:21:46;11.60;99.90
7016;DHT22;3548;48.402;9.990;2022-09-20T08:24:12;11.60;99.90
7016;DHT22;3548;48.402;9.990;2022-09-20T08:26:38;11.70;99.90
7016;DHT22;3548;48.402;9.990;2022-09-20T08:29:04;11.80;99.90
7016;DHT22;3548;48.402;9.990;2022-09-20T08:31:32;11.70;99.90
7016;DHT22;3548;48.402;9.990;2022-09-20T08:34:02;11.60;99.90
7016;DHT22;3548;48.402;9.990;2022-09-20T08:36:30;11.50;99.90
7016;DHT22;3548;48.402;9.990;2022-09-20T08:38:55;11.50;99.90
7016;DHT22;3548;48.402;9.990;2022-09-20T08:41:41;11.50;99.90
7016;DHT22;3548;48.402;9.990;2022-09-20T08:46:44;11.60;99.90
7016;DHT22;3548;48.402;9.990;2022-09-20T08:49:18;11.60;99.90
7016;DHT22;3548;48.402;9.990;2022-09-20T08:51:48;11.60;99.90
7016;DHT22;3548;48.402;9.990;2022-09-20T08:54:15;11.60;99.90
7016;DHT22;3548;48.402;9.990;2022-09-20T08:56:41;11.60;99.90
7016;DHT22;3548;48.402;9.990;2022-09-20T08:59:17;11.60;99.90
7016;DHT22;3548;48.402;9.990;2022-09-20T09:01:46;11.60;99.90
7016;DHT22;3548;48.402;9.990;2022-09-20T09:04:18;11.70;99.90
7016;DHT22;3548;48.402;9.990;2022-09-20T09:06:46;11.70;99.90
7016;DHT22;3548;48.402;9.990;2022-09-20T09:09:19;11.70;99.90
7016;DHT22;3548;48.402;9.990;2022-09-20T09:11:45;11.50;99.90
7016;DHT22;3548;48.402;9.990;2022-09-20T09:14:25;11.50;99.90
7016;DHT22;3548;48.402;9.990;2022-09-20T09:17:10;11.50;99.90
7016;DHT22;3548;48.402;9.990;2022-09-20T09:19:49;11.70;99.90
7016;DHT22;3548;48.402;9.990;2022-09-20T09:22:24;11.80;99.90
7016;DHT22;3548;48.402;9.990;2022-09-20T09:25:29;11.90;99.90
7016;DHT22;3548;48.402;9.990;2022-09-20T09:28:03;12.00;99.90
7016;DHT22;3548;48.402;9.990;2022-09-20T09:33:30;12.10;99.90
7016;DHT22;3548;48.402;9.990;2022-09-20T09:39:32;11.90;99.90
7016;DHT22;3548;48.402;9.990;2022-09-20T09:41:59;12.00;99.90
7016;DHT22;3548;48.402;9.990;2022-09-20T09:44:31;12.20;99.90
7016;DHT22;3548;48.402;9.990;2022-09-20T09:46:58;12.50;99.90
7016;DHT22;3548;48.402;9.990;2022-09-20T09:49:26;12.70;99.90
7016;DHT22;3548;48.402;9.990;2022-09-20T09:52:00;12.80;99.90
7016;DHT22;3548;48.402;9.990;2022-09-20T09:54:31;12.70;99.90
7016;DHT22;3548;48.402;9.990;2022-09-20T09:57:27;12.40;99.90
7016;DHT22;3548;48.402;9.990;2022-09-20T10:00:14;12.20;99.90
7016;DHT22;3548;48.402;9.990;2022-09-20T10:03:05;12.40;99.90
7016;DHT22;3548;48.402;9.990;2022-09-20T10:05:41;12.60;99.90
7016;DHT22;3548;48.402;9.990;2022-09-20T10:19:59;14.00;98.50
7016;DHT22;3548;48.402;9.990;2022-09-20T10:28:20;14.00;96.70
7016;DHT22;3548;48.402;9.990;2022-09-20T10:36:43;13.20;96.80
7016;DHT22;3548;48.402;9.990;2022-09-20T10:39:44;13.20;96.80
7016;DHT22;3548;48.402;9.990;2022-09-20T10:45:30;12.90;97.20
7016;DHT22;3548;48.402;9.990;2022-09-20T10:48:14;12.80;97.00
7016;DHT22;3548;48.402;9.990;2022-09-20T10:50:52;12.80;96.80
7016;DHT22;3548;48.402;9.990;2022-09-20T10:53:42;12.70;96.50
7016;DHT22;3548;48.402;9.990;2022-09-20T10:56:27;12.70;96.80
7016;DHT22;3548;48.402;9.990;2022-09-20T11:10:47;13.10;94.10
7016;DHT22;3548;48.402;9.990;2022-09-20T11:16:27;13.00;94.30
7016;DHT22;3548;48.402;9.990;2022-09-20T11:21:35;13.10;94.60
7016;DHT22;3548;48.402;9.990;2022-09-20T11:24:29;13.30;94.20
7016;DHT22;3548;48.402;9.990;2022-09-20T11:27:18;13.60;92.90
7016;DHT22;3548;48.402;9.990;2022-09-20T11:29:57;13.50;92.60
7016;DHT22;3548;48.402;9.990;2022-09-20T11:32:31;13.50;93.10
7016;DHT22;3548;48.402;9.990;2022-09-20T11:35:03;13.60;93.80
7016;DHT22;3548;48.402;9.990;2022-09-20T11:37:38;13.70;93.80
7016;DHT22;3548;48.402;9.990;2022-09-20T11:40:21;13.80;93.90
7016;DHT22;3548;48.402;9.990;2022-09-20T11:42:50;13.80;92.60
7016;DHT22;3548;48.402;9.990;2022-09-20T11:45:18;13.80;93.30
7016;DHT22;3548;48.402;9.990;2022-09-20T11:47:50;13.80;92.70
7016;DHT22;3548;48.402;9.990;2022-09-20T12:01:26;13.50;93.20
7016;DHT22;3548;48.402;9.990;2022-09-20T12:03:56;13.60;93.10
7016;DHT22;3548;48.402;9.990;2022-09-20T12:06:35;13.70;93.10
7016;DHT22;3548;48.402;9.990;2022-09-20T12:09:05;13.80;92.90
7016;DHT22;3548;48.402;9.990;2022-09-20T12:11:37;13.80;92.70
7016;DHT22;3548;48.402;9.990;2022-09-20T12:16:38;14.10;92.90
7016;DHT22;3548;48.402;9.990;2022-09-20T12:19:07;14.40;93.20
7016;DHT22;3548;48.402;9.990;2022-09-20T12:24:20;14.70;91.50
7016;DHT22;3548;48.402;9.990;2022-09-20T12:26:47;14.90;91.00
7016;DHT22;3548;48.402;9.990;2022-09-20T12:32:02;15.00;89.30
7016;DHT22;3548;48.402;9.990;2022-09-20T12:34:33;15.10;89.50
7016;DHT22;3548;48.402;9.990;2022-09-20T12:39:27;15.20;90.00
7016;DHT22;3548;48.402;9.990;2022-09-20T12:41:56;15.40;89.20
7016;DHT22;3548;48.402;9.990;2022-09-20T12:44:29;15.40;87.60
7016;DHT22;3548;48.402;9.990;2022-09-20T12:47:28;15.10;89.40
7016;DHT22;3548;48.402;9.990;2022-09-20T12:50:02;14.80;90.10
7016;DHT22;3548;48.402;9.990;2022-09-20T12:52:55;14.50;90.40
7016;DHT22;3548;48.402;9.990;2022-09-20T13:03:34;14.10;85.10
7016;DHT22;3548;48.402;9.990;2022-09-20T13:08:37;13.90;89.30
7016;DHT22;3548;48.402;9.990;2022-09-20T13:21:26;14.70;88.20
7016;DHT22;3548;48.402;9.990;2022-09-20T13:23:52;14.90;80.60
7016;DHT22;3548;48.402;9.990;2022-09-20T13:26:24;14.90;80.00
7016;DHT22;3548;48.402;9.990;2022-09-20T13:28:54;14.90;83.20
7016;DHT22;3548;48.402;9.990;2022-09-20T13:33:48;15.00;84.70
7016;DHT22;3548;48.402;9.990;2022-09-20T13:36:28;15.10;85.10
7016;DHT22;3548;48.402;9.990;2022-09-20T13:38:55;15.20;85.50
7016;DHT22;3548;48.402;9.990;2022-09-20T13:41:21;15.20;84.90
7016;DHT22;3548;48.402;9.990;2022-09-20T13:43:48;15.30;85.60
7016;DHT22;3548;48.402;9.990;2022-09-20T13:46:17;15.40;86.20
7016;DHT22;3548;48.402;9.990;2022-09-20T13:48:46;15.60;83.10
7016;DHT22;3548;48.402;9.990;2022-09-20T13:51:26;15.50;82.30
7016;DHT22;3548;48.402;9.990;2022-09-20T13:53:52;15.20;82.90
7016;DHT22;3548;48.402;9.990;2022-09-20T13:56:26;14.90;84.10
7016;DHT22;3548;48.402;9.990;2022-09-20T13:58:53;14.70;85.90
7016;DHT22;3548;48.402;9.990;2022-09-20T14:01:34;14.70;85.30
7016;DHT22;3548;48.402;9.990;2022-09-20T14:04:07;14.50;85.50
7016;DHT22;3548;48.402;9.990;2022-09-20T14:06:33;14.50;84.60
7016;DHT22;3548;48.402;9.990;2022-09-20T14:09:02;14.40;83.20
7016;DHT22;3548;48.402;9.990;2022-09-20T14:11:31;14.40;83.30
7016;DHT22;3548;48.402;9.990;2022-09-20T14:14:00;14.50;83.60
7016;DHT22;3548;48.402;9.990;2022-09-20T14:16:32;14.50;82.70
7016;DHT22;3548;48.402;9.990;2022-09-20T14:18:58;14.50;82.40
7016;DHT22;3548;48.402;9.990;2022-09-20T14:21:27;14.50;80.30
7016;DHT22;3548;48.402;9.990;2022-09-20T14:26:42;15.00;78.60
7016;DHT22;3548;48.402;9.990;2022-09-20T14:32:00;15.10;75.70
7016;DHT22;3548;48.402;9.990;2022-09-20T14:34:29;15.00;76.70
7016;DHT22;3548;48.402;9.990;2022-09-20T14:37:06;14.70;76.50
7016;DHT22;3548;48.402;9.990;2022-09-20T14:39:41;14.60;77.60
7016;DHT22;3548;48.402;9.990;2022-09-20T14:44:52;14.40;80.40
7016;DHT22;3548;48.402;9.990;2022-09-20T14:50:35;14.20;82.10
7016;DHT22;3548;48.402;9.990;2022-09-20T14:53:06;14.10;83.30
7016;DHT22;3548;48.402;9.990;2022-09-20T14:56:08;14.00;84.20
7016;DHT22;3548;48.402;9.990;2022-09-20T14:59:18;13.90;85.00
7016;DHT22;3548;48.402;9.990;2022-09-20T15:02:00;14.00;84.90
7016;DHT22;3548;48.402;9.990;2022-09-20T15:04:28;14.10;86.00
7016;DHT22;3548;48.402;9.990;2022-09-20T15:07:00;14.00;85.00
7016;DHT22;3548;48.402;9.990;2022-09-20T15:09:26;14.00;85.90
7016;DHT22;3548;48.402;9.990;2022-09-20T15:12:03;13.90;86.60
7016;DHT22;3548;48.402;9.990;2022-09-20T15:14:29;13.80;87.00
7016;DHT22;3548;48.402;9.990;2022-09-20T15:16:55;13.60;87.70
7016;DHT22;3548;48.402;9.990;2022-09-20T15:19:21;13.60;89.10
7016;DHT22;3548;48.402;9.990;2022-09-20T15:21:47;13.50;90.00
7016;DHT22;3548;48.402;9.990;2022-09-20T15:24:12;13.40;90.50
7016;DHT22;3548;48.402;9.990;2022-09-20T15:26:38;13.40;90.80
7016;DHT22;3548;48.402;9.990;2022-09-20T15:29:04;13.30;91.10
7016;DHT22;3548;48.402;9.990;2022-09-20T15:31:30;13.20;91.50
7016;DHT22;3548;48.402;9.990;2022-09-20T15:33:55;13.20;91.90
7016;DHT22;3548;48.402;9.990;2022-09-20T15:36:21;13.20;92.40
7016;DHT22;3548;48.402;9.990;2022-09-20T15:38:47;13.20;92.60
7016;DHT22;3548;48.402;9.990;2022-09-20T15:41:12;13.30;92.90
7016;DHT22;3548;48.402;9.990;2022-09-20T15:43:39;13.30;92.90
7016;DHT22;3548;48.402;9.990;2022-09-20T15:46:18;13.50;93.30
7016;DHT22;3548;48.402;9.990;2022-09-20T15:48:45;13.60;93.00
7016;DHT22;3548;48.402;9.990;2022-09-20T15:51:11;13.80;93.20
7016;DHT22;3548;48.402;9.990;2022-09-20T15:53:41;14.00;93.40
7016;DHT22;3548;48.402;9.990;2022-09-20T15:56:44;14.20;93.00
7016;DHT22;3548;48.402;9.990;2022-09-20T15:59:10;14.20;92.90
7016;DHT22;3548;48.402;9.990;2022-09-20T16:01:38;14.20;92.60
7016;DHT22;3548;48.402;9.990;2022-09-20T16:04:09;14.10;92.20
7016;DHT22;3548;48.402;9.990;2022-09-20T16:06:35;14.00;91.80
7016;DHT22;3548;48.402;9.990;2022-09-20T16:09:02;13.90;91.80
7016;DHT22;3548;48.402;9.990;2022-09-20T16:11:28;13.90;91.60
7016;DHT22;3548;48.402;9.990;2022-09-20T16:13:55;13.80;91.60
7016;DHT22;3548;48.402;9.990;2022-09-20T16:16:21;13.70;91.90
7016;DHT22;3548;48.402;9.990;2022-09-20T16:18:47;13.60;92.30
7016;DHT22;3548;48.402;9.990;2022-09-20T16:21:31;13.60;92.50
7016;DHT22;3548;48.402;9.990;2022-09-20T16:23:57;13.60;92.80
7016;DHT22;3548;48.402;9.990;2022-09-20T16:26:27;13.50;93.00
7016;DHT22;3548;48.402;9.990;2022-09-20T16:28:54;13.50;93.20
7016;DHT22;3548;48.402;9.990;2022-09-20T16:31:45;13.40;93.40
7016;DHT22;3548;48.402;9.990;2022-09-20T16:36:41;13.30;93.60
7016;DHT22;3548;48.402;9.990;2022-09-20T16:39:09;13.30;94.00
7016;DHT22;3548;48.402;9.990;2022-09-20T16:41:35;13.20;94.20
7016;DHT22;3548;48.402;9.990;2022-09-20T16:44:01;13.20;94.50
7016;DHT22;3548;48.402;9.990;2022-09-20T16:46:27;13.00;94.70
7016;DHT22;3548;48.402;9.990;2022-09-20T16:48:55;12.90;95.10
7016;DHT22;3548;48.402;9.990;2022-09-20T16:51:22;12.80;95.40
7016;DHT22;3548;48.402;9.990;2022-09-20T16:53:50;12.70;95.80
7016;DHT22;3548;48.402;9.990;2022-09-20T16:56:24;12.60;96.00
7016;DHT22;3548;48.402;9.990;2022-09-20T16:58:51;12.60;96.00
7016;DHT22;3548;48.402;9.990;2022-09-20T17:01:17;12.40;96.10
7016;DHT22;3548;48.402;9.990;2022-09-20T17:03:43;12.40;96.40
7016;DHT22;3548;48.402;9.990;2022-09-20T17:06:10;12.30;96.50
7016;DHT22;3548;48.402;9.990;2022-09-20T17:08:37;12.20;96.70
7016;DHT22;3548;48.402;9.990;2022-09-20T17:11:13;12.10;96.90
7016;DHT22;3548;48.402;9.990;2022-09-20T17:13:41;12.10;97.20
7016;DHT22;3548;48.402;9.990;2022-09-20T17:16:15;12.00;97.60
7016;DHT22;3548;48.402;9.990;2022-09-20T17:18:41;11.90;98.10
7016;DHT22;3548;48.402;9.990;2022-09-20T17:21:15;11.80;98.50
7016;DHT22;3548;48.402;9.990;2022-09-20T17:23:42;11.70;99.10
7016;DHT22;3548;48.402;9.990;2022-09-20T17:26:15;11.60;99.40
7016;DHT22;3548;48.402;9.990;2022-09-20T17:28:43;11.50;99.90
7016;DHT22;3548;48.402;9.990;2022-09-20T17:31:12;11.40;99.90
7016;DHT22;3548;48.402;9.990;2022-09-20T17:33:38;11.30;99.90
7016;DHT22;3548;48.402;9.990;2022-09-20T17:36:05;11.30;99.90
7016;DHT22;3548;48.402;9.990;2022-09-20T17:38:32;11.20;99.90
7016;DHT22;3548;48.402;9.990;2022-09-20T17:40:59;11.20;99.90
7016;DHT22;3548;48.402;9.990;2022-09-20T17:43:26;11.10;99.90
7016;DHT22;3548;48.402;9.990;2022-09-20T17:45:53;11.10;99.90
7016;DHT22;3548;48.402;9.990;2022-09-20T17:48:19;11.00;99.90
7016;DHT22;3548;48.402;9.990;2022-09-20T17:50:56;11.00;99.90
7016;DHT22;3548;48.402;9.990;2022-09-20T17:53:22;10.90;99.90
7016;DHT22;3548;48.402;9.990;2022-09-20T17:55:54;10.90;99.90
7016;DHT22;3548;48.402;9.990;2022-09-20T17:58:21;10.80;99.90
7016;DHT22;3548;48.402;9.990;2022-09-20T18:00:46;10.80;99.90
7016;DHT22;3548;48.402;9.990;2022-09-20T18:03:12;10.80;99.90
7016;DHT22;3548;48.402;9.990;2022-09-20T18:05:38;10.70;99.90
7016;DHT22;3548;48.402;9.990;2022-09-20T18:08:04;10.70;99.90
7016;DHT22;3548;48.402;9.990;2022-09-20T18:10:30;10.70;99.90
7016;DHT22;3548;48.402;9.990;2022-09-20T18:12:55;10.70;99.90
7016;DHT22;3548;48.402;9.990;2022-09-20T18:15:21;10.60;99.90
7016;DHT22;3548;48.402;9.990;2022-09-20T18:17:48;10.60;99.90
7016;DHT22;3548;48.402;9.990;2022-09-20T18:20:14;10.60;99.90
7016;DHT22;3548;48.402;9.990;2022-09-20T18:22:39;10.60;99.90
7016;DHT22;3548;48.402;9.990;2022-09-20T18:25:05;10.60;99.90
7016;DHT22;3548;48.402;9.990;2022-09-20T18:27:31;10.60;99.90
7016;DHT22;3548;48.402;9.990;2022-09-20T18:29:58;10.50;99.90
7016;DHT22;3548;48.402;9.990;2022-09-20T18:32:24;10.50;99.90
7016;DHT22;3548;48.402;9.990;2022-09-20T18:34:51;10.50;99.90
7016;DHT22;3548;48.402;9.990;2022-09-20T18:37:16;10.50;99.90
7016;DHT22;3548;48.402;9.990;2022-09-20T18:39:42;10.50;99.90
7016;DHT22;3548;48.402;9.990;2022-09-20T18:42:08;10.50;99.90
7016;DHT22;3548;48.402;9.990;2022-09-20T18:44:34;10.50;99.90
7016;DHT22;3548;48.402;9.990;2022-09-20T18:47:01;10.40;99.90
7016;DHT22;3548;48.402;9.990;2022-09-20T18:49:28;10.30;99.90
7016;DHT22;3548;48.402;9.990;2022-09-20T18:51:55;10.30;99.90
7016;DHT22;3548;48.402;9.990;2022-09-20T18:54:20;10.20;99.90
7016;DHT22;3548;48.402;9.990;2022-09-20T18:56:48;10.20;99.90
7016;DHT22;3548;48.402;9.990;2022-09-20T19:07:19;10.10;99.90
7016;DHT22;3548;48.402;9.990;2022-09-20T19:09:55;10.10;99.90
7016;DHT22;3548;48.402;9.990;2022-09-20T19:15:14;10.10;99.90
7016;DHT22;3548;48.402;9.990;2022-09-20T19:18:15;10.00;99.90
7016;DHT22;3548;48.402;9.990;2022-09-20T19:26:27;10.00;99.90
7016;DHT22;3548;48.402;9.990;2022-09-20T19:28:55;9.90;99.90
7016;DHT22;3548;48.402;9.990;2022-09-20T19:31:31;9.90;99.90
7016;DHT22;3548;48.402;9.990;2022-09-20T19:33:59;9.90;99.90
7016;DHT22;3548;48.402;9.990;2022-09-20T19:36:48;9.80;99.90
7016;DHT22;3548;48.402;9.990;2022-09-20T19:49:56;9.40;99.90
7016;DHT22;3548;48.402;9.990;2022-09-20T19:52:24;9.40;99.90
7016;DHT22;3548;48.402;9.990;2022-09-20T19:54:50;9.30;99.90
7016;DHT22;3548;48.402;9.990;2022-09-20T19:57:39;9.30;99.90
7016;DHT22;3548;48.402;9.990;2022-09-20T20:00:10;9.20;99.90
7016;DHT22;3548;48.402;9.990;2022-09-20T20:02:43;9.10;99.90
7016;DHT22;3548;48.402;9.990;2022-09-20T20:05:11;9.10;99.90
7016;DHT22;3548;48.402;9.990;2022-09-20T20:13:35;8.80;99.90
7016;DHT22;3548;48.402;9.990;2022-09-20T20:25:38;8.70;99.90
7016;DHT22;3548;48.402;9.990;2022-09-20T20:28:06;8.70;99.90
7016;DHT22;3548;48.402;9.990;2022-09-20T20:30:32;8.70;99.90
7016;DHT22;3548;48.402;9.990;2022-09-20T20:32:58;8.70;99.90
7016;DHT22;3548;48.402;9.990;2022-09-20T20:35:25;8.70;99.90
7016;DHT22;3548;48.402;9.990;2022-09-20T20:37:51;8.70;99.90
7016;DHT22;3548;48.402;9.990;2022-09-20T20:40:17;8.70;99.90
7016;DHT22;3548;48.402;9.990;2022-09-20T20:42:43;8.70;99.90
7016;DHT22;3548;48.402;9.990;2022-09-20T20:45:09;8.60;99.90
7016;DHT22;3548;48.402;9.990;2022-09-20T20:47:35;8.60;99.90
7016;DHT22;3548;48.402;9.990;2022-09-20T20:50:00;8.50;99.90
7016;DHT22;3548;48.402;9.990;2022-09-20T20:52:26;8.40;99.90
7016;DHT22;3548;48.402;9.990;2022-09-20T20:54:51;8.30;99.90
7016;DHT22;3548;48.402;9.990;2022-09-20T20:57:17;8.20;99.90
7016;DHT22;3548;48.402;9.990;2022-09-20T20:59:43;8.10;99.90
7016;DHT22;3548;48.402;9.990;2022-09-20T21:02:09;8.10;99.90
7016;DHT22;3548;48.402;9.990;2022-09-20T21:04:35;8.10;99.90
7016;DHT22;3548;48.402;9.990;2022-09-20T21:07:01;8.00;99.90
7016;DHT22;3548;48.402;9.990;2022-09-20T21:09:28;8.00;99.90
7016;DHT22;3548;48.402;9.990;2022-09-20T21:11:53;7.90;99.90
7016;DHT22;3548;48.402;9.990;2022-09-20T21:14:19;7.90;99.90
7016;DHT22;3548;48.402;9.990;2022-09-20T21:16:44;7.90;99.90
7016;DHT22;3548;48.402;9.990;2022-09-20T21:19:11;7.90;99.90
7016;DHT22;3548;48.402;9.990;2022-09-20T21:21:40;7.90;99.90
7016;DHT22;3548;48.402;9.990;2022-09-20T21:24:08;7.90;99.90
7016;DHT22;3548;48.402;9.990;2022-09-20T21:26:35;7.90;99.90
7016;DHT22;3548;48.402;9.990;2022-09-20T21:29:03;7.90;99.90
7016;DHT22;3548;48.402;9.990;2022-09-20T21:31:31;7.90;99.90
7016;DHT22;3548;48.402;9.990;2022-09-20T21:33:57;7.90;99.90
7016;DHT22;3548;48.402;9.990;2022-09-20T21:36:32;7.90;99.90
7016;DHT22;3548;48.402;9.990;2022-09-20T21:38:58;7.90;99.90
7016;DHT22;3548;48.402;9.990;2022-09-20T21:41:29;7.80;99.90
7016;DHT22;3548;48.402;9.990;2022-09-20T21:44:00;7.80;99.90
7016;DHT22;3548;48.402;9.990;2022-09-20T21:46:34;7.80;99.90
7016;DHT22;3548;48.402;9.990;2022-09-20T21:49:03;7.70;99.90
7016;DHT22;3548;48.402;9.990;2022-09-20T21:51:30;7.70;99.90
7016;DHT22;3548;48.402;9.990;2022-09-20T21:53:57;7.60;99.90
7016;DHT22;3548;48.402;9.990;2022-09-20T21:56:25;7.60;99.90
7016;DHT22;3548;48.402;9.990;2022-09-20T21:58:52;7.60;99.90
7016;DHT22;3548;48.402;9.990;2022-09-20T22:01:22;7.60;99.90